sensor_id;sensor_type;location;lat;lon;timestamp;P1;durP1;ratioP1;P2;durP2;ratioP2
25758;SDS011;13604;52.496;13.456;2023-06-14T00:00:50;5.90;;;2.88;;
25758;SDS011;13604;52.496;13.456;2023-06-14T00:03:17;6.10;;;3.20;;
25758;SDS011;13604;52.496;13.456;2023-06-14T00:05:43;4.10;;;2.83;;
25758;SDS011;13604;52.496;13.456;2023-06-14T00:08:11;4.05;;;3.08;;
25758;SDS011;13604;52.496;13.456;2023-06-14T00:10:37;6.07;;;2.83;;
25758;SDS011;13604;52.496;13.456;2023-06-14T00:13:03;3.83;;;2.72;;
25758;SDS011;13604;52.496;13.456;2023-06-14T00:15:29;9.23;;;3.28;;
25758;SDS011;13604;52.496;13.456;2023-06-14T00:17:55;5.30;;;2.92;;
25758;SDS011;13604;52.496;13.456;2023-06-14T00:20:26;4.00;;;2.83;;
25758;SDS011;13604;52.496;13.456;2023-06-14T00:22:52;5.65;;;3.00;;
25758;SDS011;13604;52.496;13.456;2023-06-14T00:25:19;7.35;;;3.13;;
25758;SDS011;13604;52.496;13.456;2023-06-14T00:27:44;5.80;;;3.17;;
25758;SDS011;13604;52.496;13.456;2023-06-14T00:30:10;6.70;;;3.30;;
25758;SDS011;13604;52.496;13.456;2023-06-14T00:32:35;6.75;;;3.30;;
25758;SDS011;13604;52.496;13.456;2023-06-14T00:35:01;5.50;;;3.03;;
25758;SDS011;13604;52.496;13.456;2023-06-14T00:37:26;5.97;;;3.30;;
25758;SDS011;13604;52.496;13.456;2023-06-14T00:39:51;5.63;;;3.38;;
25758;SDS011;13604;52.496;13.456;2023-06-14T00:42:23;4.18;;;3.10;;
25758;SDS011;13604;52.496;13.456;2023-06-14T00:44:50;6.43;;;3.57;;
25758;SDS011;13604;52.496;13.456;2023-06-14T00:47:15;5.40;;;3.30;;
25758;SDS011;13604;52.496;13.456;2023-06-14T00:49:41;13.35;;;3.65;;
25758;SDS011;13604;52.496;13.456;2023-06-14T00:52:07;5.35;;;3.40;;
25758;SDS011;13604;52.496;13.456;2023-06-14T00:54:40;4.70;;;3.65;;
25758;SDS011;13604;52.496;13.456;2023-06-14T00:57:06;5.55;;;4.35;;
25758;SDS011;13604;52.496;13.456;2023-06-14T00:59:32;6.75;;;5.05;;
25758;SDS011;13604;52.496;13.456;2023-06-14T01:01:58;8.77;;;4.40;;
25758;SDS011;13604;52.496;13.456;2023-06-14T01:04:23;7.03;;;4.32;;
25758;SDS011;13604;52.496;13.456;2023-06-14T01:06:58;5.88;;;4.07;;
25758;SDS011;13604;52.496;13.456;2023-06-14T01:12:29;8.95;;;4.32;;
25758;SDS011;13604;52.496;13.456;2023-06-14T01:15:14;5.82;;;3.90;;
25758;SDS011;13604;52.496;13.456;2023-06-14T01:17:40;7.10;;;4.53;;
25758;SDS011;13604;52.496;13.456;2023-06-14T01:20:09;7.57;;;4.78;;
25758;SDS011;13604;52.496;13.456;2023-06-14T01:22:47;5.38;;;4.22;;
25758;SDS011;13604;52.496;13.456;2023-06-14T01:25:17;7.22;;;4.35;;
25758;SDS011;13604;52.496;13.456;2023-06-14T01:27:45;10.40;;;5.15;;
25758;SDS011;13604;52.496;13.456;2023-06-14T01:30:13;8.27;;;4.50;;
25758;SDS011;13604;52.496;13.456;2023-06-14T01:32:39;8.85;;;4.30;;
25758;SDS011;13604;52.496;13.456;2023-06-14T01:35:05;8.48;;;4.78;;
25758;SDS011;13604;52.496;13.456;2023-06-14T01:37:31;7.55;;;4.00;;
25758;SDS011;13604;52.496;13.456;2023-06-14T01:39:56;8.10;;;4.70;;
25758;SDS011;13604;52.496;13.456;2023-06-14T01:42:23;8.32;;;5.13;;
25758;SDS011;13604;52.496;13.456;2023-06-14T01:44:48;12.23;;;5.68;;
25758;SDS011;13604;52.496;13.456;2023-06-14T01:47:16;8.63;;;4.57;;
25758;SDS011;13604;52.496;13.456;2023-06-14T01:49:42;10.85;;;5.47;;
25758;SDS011;13604;52.496;13.456;2023-06-14T01:52:07;6.38;;;4.90;;
25758;SDS011;13604;52.496;13.456;2023-06-14T01:54:34;6.25;;;4.88;;
25758;SDS011;13604;52.496;13.456;2023-06-14T01:57:02;7.72;;;4.90;;
25758;SDS011;13604;52.496;13.456;2023-06-14T01:59:28;7.28;;;5.28;;
25758;SDS011;13604;52.496;13.456;2023-06-14T02:01:56;8.65;;;5.28;;
25758;SDS011;13604;52.496;13.456;2023-06-14T02:04:21;7.70;;;4.95;;
25758;SDS011;13604;52.496;13.456;2023-06-14T02:06:46;9.20;;;5.70;;
25758;SDS011;13604;52.496;13.456;2023-06-14T02:09:12;7.38;;;5.20;;
25758;SDS011;13604;52.496;13.456;2023-06-14T02:11:37;9.85;;;5.38;;
25758;SDS011;13604;52.496;13.456;2023-06-14T02:14:02;8.27;;;5.93;;
25758;SDS011;13604;52.496;13.456;2023-06-14T02:16:28;7.28;;;5.20;;
25758;SDS011;13604;52.496;13.456;2023-06-14T02:18:54;9.10;;;5.55;;
25758;SDS011;13604;52.496;13.456;2023-06-14T02:21:20;12.30;;;6.40;;
25758;SDS011;13604;52.496;13.456;2023-06-14T02:23:47;8.05;;;5.30;;
25758;SDS011;13604;52.496;13.456;2023-06-14T02:26:12;7.97;;;5.18;;
25758;SDS011;13604;52.496;13.456;2023-06-14T02:28:38;7.88;;;5.85;;
25758;SDS011;13604;52.496;13.456;2023-06-14T02:31:03;11.00;;;6.20;;
25758;SDS011;13604;52.496;13.456;2023-06-14T02:33:28;6.88;;;5.60;;
25758;SDS011;13604;52.496;13.456;2023-06-14T02:35:54;9.20;;;5.43;;
25758;SDS011;13604;52.496;13.456;2023-06-14T02:38:19;12.57;;;6.10;;
25758;SDS011;13604;52.496;13.456;2023-06-14T02:40:44;11.95;;;6.75;;
25758;SDS011;13604;52.496;13.456;2023-06-14T02:43:10;8.32;;;5.68;;
25758;SDS011;13604;52.496;13.456;2023-06-14T02:45:35;9.00;;;6.18;;
25758;SDS011;13604;52.496;13.456;2023-06-14T02:48:00;8.85;;;6.10;;
25758;SDS011;13604;52.496;13.456;2023-06-14T02:50:25;8.65;;;5.85;;
25758;SDS011;13604;52.496;13.456;2023-06-14T02:52:53;10.55;;;6.00;;
25758;SDS011;13604;52.496;13.456;2023-06-14T02:55:20;9.55;;;6.38;;
25758;SDS011;13604;52.496;13.456;2023-06-14T02:57:46;13.10;;;6.90;;
25758;SDS011;13604;52.496;13.456;2023-06-14T03:00:13;10.25;;;6.30;;
25758;SDS011;13604;52.496;13.456;2023-06-14T03:02:38;8.15;;;5.93;;
25758;SDS011;13604;52.496;13.456;2023-06-14T03:05:04;11.90;;;6.40;;
25758;SDS011;13604;52.496;13.456;2023-06-14T03:07:31;9.02;;;5.93;;
25758;SDS011;13604;52.496;13.456;2023-06-14T03:09:57;8.35;;;6.30;;
25758;SDS011;13604;52.496;13.456;2023-06-14T03:12:23;8.52;;;5.93;;
25758;SDS011;13604;52.496;13.456;2023-06-14T03:14:48;9.50;;;6.20;;
25758;SDS011;13604;52.496;13.456;2023-06-14T03:17:15;9.38;;;5.97;;
25758;SDS011;13604;52.496;13.456;2023-06-14T03:19:42;11.32;;;7.57;;
25758;SDS011;13604;52.496;13.456;2023-06-14T03:22:07;8.95;;;6.45;;
25758;SDS011;13604;52.496;13.456;2023-06-14T03:24:33;17.88;;;6.75;;
25758;SDS011;13604;52.496;13.456;2023-06-14T03:27:01;7.53;;;6.60;;
25758;SDS011;13604;52.496;13.456;2023-06-14T03:29:27;8.90;;;7.03;;
25758;SDS011;13604;52.496;13.456;2023-06-14T03:32:02;14.32;;;7.20;;
25758;SDS011;13604;52.496;13.456;2023-06-14T03:34:28;10.27;;;7.10;;
25758;SDS011;13604;52.496;13.456;2023-06-14T03:36:53;9.75;;;6.68;;
25758;SDS011;13604;52.496;13.456;2023-06-14T03:39:19;10.25;;;6.63;;
25758;SDS011;13604;52.496;13.456;2023-06-14T03:41:45;10.27;;;6.47;;
25758;SDS011;13604;52.496;13.456;2023-06-14T03:44:11;11.23;;;6.32;;
25758;SDS011;13604;52.496;13.456;2023-06-14T03:46:36;10.98;;;6.65;;
25758;SDS011;13604;52.496;13.456;2023-06-14T03:49:01;11.88;;;6.47;;
25758;SDS011;13604;52.496;13.456;2023-06-14T03:51:28;7.75;;;6.53;;
25758;SDS011;13604;52.496;13.456;2023-06-14T03:53:54;9.13;;;6.22;;
25758;SDS011;13604;52.496;13.456;2023-06-14T03:56:20;8.70;;;6.28;;
25758;SDS011;13604;52.496;13.456;2023-06-14T03:58:46;12.98;;;6.65;;
25758;SDS011;13604;52.496;13.456;2023-06-14T04:01:11;11.60;;;7.75;;
25758;SDS011;13604;52.496;13.456;2023-06-14T04:03:37;14.05;;;6.85;;
25758;SDS011;13604;52.496;13.456;2023-06-14T04:06:03;13.13;;;5.95;;
25758;SDS011;13604;52.496;13.456;2023-06-14T04:08:30;8.60;;;5.72;;
25758;SDS011;13604;52.496;13.456;2023-06-14T04:10:55;10.38;;;7.28;;
25758;SDS011;13604;52.496;13.456;2023-06-14T04:13:21;11.10;;;7.35;;
25758;SDS011;13604;52.496;13.456;2023-06-14T04:15:46;14.85;;;7.28;;
25758;SDS011;13604;52.496;13.456;2023-06-14T04:18:12;10.73;;;6.47;;
25758;SDS011;13604;52.496;13.456;2023-06-14T04:20:37;11.23;;;7.25;;
25758;SDS011;13604;52.496;13.456;2023-06-14T04:23:13;9.30;;;7.10;;
25758;SDS011;13604;52.496;13.456;2023-06-14T04:25:40;14.45;;;7.10;;
25758;SDS011;13604;52.496;13.456;2023-06-14T04:28:05;10.20;;;6.80;;
25758;SDS011;13604;52.496;13.456;2023-06-14T04:30:33;8.35;;;5.97;;
25758;SDS011;13604;52.496;13.456;2023-06-14T04:33:00;9.63;;;6.50;;
25758;SDS011;13604;52.496;13.456;2023-06-14T04:35:26;10.05;;;7.07;;
25758;SDS011;13604;52.496;13.456;2023-06-14T04:37:53;13.80;;;7.82;;
25758;SDS011;13604;52.496;13.456;2023-06-14T04:40:20;11.82;;;6.75;;
25758;SDS011;13604;52.496;13.456;2023-06-14T04:42:45;8.45;;;6.40;;
25758;SDS011;13604;52.496;13.456;2023-06-14T04:45:12;12.73;;;7.03;;
25758;SDS011;13604;52.496;13.456;2023-06-14T04:47:38;10.82;;;6.55;;
25758;SDS011;13604;52.496;13.456;2023-06-14T04:50:05;15.43;;;6.65;;
25758;SDS011;13604;52.496;13.456;2023-06-14T04:52:32;8.77;;;6.53;;
25758;SDS011;13604;52.496;13.456;2023-06-14T04:54:57;9.43;;;6.93;;
25758;SDS011;13604;52.496;13.456;2023-06-14T04:57:23;10.40;;;6.65;;
25758;SDS011;13604;52.496;13.456;2023-06-14T04:59:50;9.75;;;6.32;;
25758;SDS011;13604;52.496;13.456;2023-06-14T05:02:20;11.48;;;6.68;;
25758;SDS011;13604;52.496;13.456;2023-06-14T05:04:49;8.60;;;6.60;;
25758;SDS011;13604;52.496;13.456;2023-06-14T05:07:15;7.85;;;6.00;;
25758;SDS011;13604;52.496;13.456;2023-06-14T05:09:41;12.90;;;6.85;;
25758;SDS011;13604;52.496;13.456;2023-06-14T05:12:06;8.57;;;6.80;;
25758;SDS011;13604;52.496;13.456;2023-06-14T05:14:34;8.77;;;6.55;;
25758;SDS011;13604;52.496;13.456;2023-06-14T05:17:00;8.82;;;6.85;;
25758;SDS011;13604;52.496;13.456;2023-06-14T05:19:25;9.75;;;6.38;;
25758;SDS011;13604;52.496;13.456;2023-06-14T05:21:51;18.33;;;6.90;;
25758;SDS011;13604;52.496;13.456;2023-06-14T05:24:18;7.75;;;5.82;;
25758;SDS011;13604;52.496;13.456;2023-06-14T05:26:43;11.15;;;6.88;;
25758;SDS011;13604;52.496;13.456;2023-06-14T05:29:08;9.73;;;5.90;;
25758;SDS011;13604;52.496;13.456;2023-06-14T05:31:33;11.00;;;6.63;;
25758;SDS011;13604;52.496;13.456;2023-06-14T05:33:59;8.65;;;5.32;;
25758;SDS011;13604;52.496;13.456;2023-06-14T05:36:24;10.50;;;6.38;;
25758;SDS011;13604;52.496;13.456;2023-06-14T05:38:50;9.18;;;6.05;;
25758;SDS011;13604;52.496;13.456;2023-06-14T05:41:22;13.90;;;7.22;;
25758;SDS011;13604;52.496;13.456;2023-06-14T05:43:47;9.38;;;5.93;;
25758;SDS011;13604;52.496;13.456;2023-06-14T05:46:14;7.97;;;5.93;;
25758;SDS011;13604;52.496;13.456;2023-06-14T05:48:41;13.05;;;6.35;;
25758;SDS011;13604;52.496;13.456;2023-06-14T05:51:07;12.00;;;5.88;;
25758;SDS011;13604;52.496;13.456;2023-06-14T05:53:33;11.00;;;6.15;;
25758;SDS011;13604;52.496;13.456;2023-06-14T05:55:59;11.35;;;6.32;;
25758;SDS011;13604;52.496;13.456;2023-06-14T05:58:26;15.40;;;6.43;;
25758;SDS011;13604;52.496;13.456;2023-06-14T06:00:51;9.25;;;6.45;;
25758;SDS011;13604;52.496;13.456;2023-06-14T06:03:18;10.95;;;6.47;;
25758;SDS011;13604;52.496;13.456;2023-06-14T06:05:44;13.60;;;6.93;;
25758;SDS011;13604;52.496;13.456;2023-06-14T06:08:09;10.52;;;7.18;;
25758;SDS011;13604;52.496;13.456;2023-06-14T06:10:34;10.10;;;6.25;;
25758;SDS011;13604;52.496;13.456;2023-06-14T06:13:00;8.07;;;6.07;;
25758;SDS011;13604;52.496;13.456;2023-06-14T06:15:25;10.57;;;6.28;;
25758;SDS011;13604;52.496;13.456;2023-06-14T06:17:51;15.75;;;6.53;;
25758;SDS011;13604;52.496;13.456;2023-06-14T06:20:16;12.00;;;6.15;;
25758;SDS011;13604;52.496;13.456;2023-06-14T06:22:42;11.73;;;7.22;;
25758;SDS011;13604;52.496;13.456;2023-06-14T06:25:07;9.88;;;5.57;;
25758;SDS011;13604;52.496;13.456;2023-06-14T06:27:33;12.75;;;6.13;;
25758;SDS011;13604;52.496;13.456;2023-06-14T06:29:59;10.07;;;5.78;;
25758;SDS011;13604;52.496;13.456;2023-06-14T06:32:24;10.05;;;6.15;;
25758;SDS011;13604;52.496;13.456;2023-06-14T06:34:50;13.38;;;6.28;;
25758;SDS011;13604;52.496;13.456;2023-06-14T06:37:15;9.38;;;5.70;;
25758;SDS011;13604;52.496;13.456;2023-06-14T06:39:40;14.75;;;5.47;;
25758;SDS011;13604;52.496;13.456;2023-06-14T06:42:06;7.10;;;5.35;;
25758;SDS011;13604;52.496;13.456;2023-06-14T06:44:31;13.30;;;5.30;;
25758;SDS011;13604;52.496;13.456;2023-06-14T06:46:57;9.35;;;5.80;;
25758;SDS011;13604;52.496;13.456;2023-06-14T06:49:23;12.57;;;5.55;;
25758;SDS011;13604;52.496;13.456;2023-06-14T06:54:29;6.78;;;4.72;;
25758;SDS011;13604;52.496;13.456;2023-06-14T06:56:55;9.23;;;5.00;;
25758;SDS011;13604;52.496;13.456;2023-06-14T06:59:21;9.40;;;5.50;;
25758;SDS011;13604;52.496;13.456;2023-06-14T07:01:46;7.65;;;5.20;;
25758;SDS011;13604;52.496;13.456;2023-06-14T07:04:12;7.78;;;4.75;;
25758;SDS011;13604;52.496;13.456;2023-06-14T07:06:38;12.25;;;5.45;;
25758;SDS011;13604;52.496;13.456;2023-06-14T07:09:03;8.02;;;4.75;;
25758;SDS011;13604;52.496;13.456;2023-06-14T07:11:30;10.93;;;5.03;;
25758;SDS011;13604;52.496;13.456;2023-06-14T07:13:55;7.63;;;5.63;;
25758;SDS011;13604;52.496;13.456;2023-06-14T07:16:21;8.52;;;5.25;;
25758;SDS011;13604;52.496;13.456;2023-06-14T07:18:46;9.25;;;5.57;;
25758;SDS011;13604;52.496;13.456;2023-06-14T07:21:11;9.30;;;4.90;;
25758;SDS011;13604;52.496;13.456;2023-06-14T07:23:37;8.95;;;4.78;;
25758;SDS011;13604;52.496;13.456;2023-06-14T07:26:02;8.50;;;4.90;;
25758;SDS011;13604;52.496;13.456;2023-06-14T07:28:30;17.52;;;5.47;;
25758;SDS011;13604;52.496;13.456;2023-06-14T07:30:55;8.68;;;5.07;;
25758;SDS011;13604;52.496;13.456;2023-06-14T07:33:21;8.57;;;4.53;;
25758;SDS011;13604;52.496;13.456;2023-06-14T07:35:46;6.03;;;4.35;;
25758;SDS011;13604;52.496;13.456;2023-06-14T07:38:12;7.85;;;5.03;;
25758;SDS011;13604;52.496;13.456;2023-06-14T07:40:38;8.07;;;4.72;;
25758;SDS011;13604;52.496;13.456;2023-06-14T07:43:03;8.60;;;4.65;;
25758;SDS011;13604;52.496;13.456;2023-06-14T07:45:30;9.13;;;4.97;;
25758;SDS011;13604;52.496;13.456;2023-06-14T07:47:55;12.43;;;6.28;;
25758;SDS011;13604;52.496;13.456;2023-06-14T07:50:22;11.60;;;5.10;;
25758;SDS011;13604;52.496;13.456;2023-06-14T07:52:48;9.55;;;3.88;;
25758;SDS011;13604;52.496;13.456;2023-06-14T07:55:13;13.68;;;5.68;;
25758;SDS011;13604;52.496;13.456;2023-06-14T07:57:40;6.15;;;4.40;;
25758;SDS011;13604;52.496;13.456;2023-06-14T08:00:06;7.97;;;4.35;;
25758;SDS011;13604;52.496;13.456;2023-06-14T08:02:31;6.13;;;4.00;;
25758;SDS011;13604;52.496;13.456;2023-06-14T08:04:57;8.80;;;4.50;;
25758;SDS011;13604;52.496;13.456;2023-06-14T08:07:23;12.15;;;4.82;;
25758;SDS011;13604;52.496;13.456;2023-06-14T08:09:48;7.70;;;4.63;;
25758;SDS011;13604;52.496;13.456;2023-06-14T08:12:14;6.13;;;3.67;;
25758;SDS011;13604;52.496;13.456;2023-06-14T08:14:41;9.07;;;4.20;;
25758;SDS011;13604;52.496;13.456;2023-06-14T08:17:07;6.65;;;4.28;;
25758;SDS011;13604;52.496;13.456;2023-06-14T08:19:32;11.48;;;4.03;;
25758;SDS011;13604;52.496;13.456;2023-06-14T08:21:58;9.43;;;4.35;;
25758;SDS011;13604;52.496;13.456;2023-06-14T08:24:23;8.85;;;4.32;;
25758;SDS011;13604;52.496;13.456;2023-06-14T08:26:54;11.50;;;5.18;;
25758;SDS011;13604;52.496;13.456;2023-06-14T08:29:19;6.75;;;4.10;;
25758;SDS011;13604;52.496;13.456;2023-06-14T08:31:45;11.77;;;4.38;;
25758;SDS011;13604;52.496;13.456;2023-06-14T08:34:11;9.90;;;3.47;;
25758;SDS011;13604;52.496;13.456;2023-06-14T08:36:36;8.60;;;4.60;;
25758;SDS011;13604;52.496;13.456;2023-06-14T08:39:02;9.65;;;3.97;;
25758;SDS011;13604;52.496;13.456;2023-06-14T08:41:27;5.90;;;3.65;;
25758;SDS011;13604;52.496;13.456;2023-06-14T08:43:54;5.97;;;3.47;;
25758;SDS011;13604;52.496;13.456;2023-06-14T08:46:20;6.13;;;3.38;;
25758;SDS011;13604;52.496;13.456;2023-06-14T08:48:50;11.75;;;3.72;;
25758;SDS011;13604;52.496;13.456;2023-06-14T08:51:21;13.40;;;3.47;;
25758;SDS011;13604;52.496;13.456;2023-06-14T08:53:54;5.60;;;3.60;;
25758;SDS011;13604;52.496;13.456;2023-06-14T08:56:26;5.75;;;3.00;;
25758;SDS011;13604;52.496;13.456;2023-06-14T08:58:52;7.18;;;3.33;;
25758;SDS011;13604;52.496;13.456;2023-06-14T09:01:19;8.57;;;3.50;;
25758;SDS011;13604;52.496;13.456;2023-06-14T09:03:47;6.47;;;3.53;;
25758;SDS011;13604;52.496;13.456;2023-06-14T09:06:13;10.20;;;3.58;;
25758;SDS011;13604;52.496;13.456;2023-06-14T09:08:43;5.38;;;3.55;;
25758;SDS011;13604;52.496;13.456;2023-06-14T09:11:13;11.63;;;3.05;;
25758;SDS011;13604;52.496;13.456;2023-06-14T09:13:41;7.95;;;3.60;;
25758;SDS011;13604;52.496;13.456;2023-06-14T09:16:07;5.68;;;3.22;;
25758;SDS011;13604;52.496;13.456;2023-06-14T09:18:40;6.85;;;3.45;;
25758;SDS011;13604;52.496;13.456;2023-06-14T09:21:08;10.57;;;3.30;;
25758;SDS011;13604;52.496;13.456;2023-06-14T09:23:40;5.18;;;2.97;;
25758;SDS011;13604;52.496;13.456;2023-06-14T09:28:40;4.63;;;3.10;;
25758;SDS011;13604;52.496;13.456;2023-06-14T09:31:13;7.97;;;3.53;;
25758;SDS011;13604;52.496;13.456;2023-06-14T09:33:41;9.07;;;3.25;;
25758;SDS011;13604;52.496;13.456;2023-06-14T09:36:11;4.97;;;3.67;;
25758;SDS011;13604;52.496;13.456;2023-06-14T09:38:39;8.65;;;3.05;;
25758;SDS011;13604;52.496;13.456;2023-06-14T09:41:05;11.32;;;3.85;;
25758;SDS011;13604;52.496;13.456;2023-06-14T09:43:30;5.68;;;3.22;;
25758;SDS011;13604;52.496;13.456;2023-06-14T09:45:58;5.25;;;3.70;;
25758;SDS011;13604;52.496;13.456;2023-06-14T09:48:26;7.65;;;3.28;;
25758;SDS011;13604;52.496;13.456;2023-06-14T09:50:51;12.32;;;3.40;;
25758;SDS011;13604;52.496;13.456;2023-06-14T09:53:20;5.25;;;3.45;;
25758;SDS011;13604;52.496;13.456;2023-06-14T09:55:49;8.63;;;3.55;;
25758;SDS011;13604;52.496;13.456;2023-06-14T09:58:14;7.10;;;3.45;;
25758;SDS011;13604;52.496;13.456;2023-06-14T10:00:42;10.10;;;3.40;;
25758;SDS011;13604;52.496;13.456;2023-06-14T10:03:11;11.48;;;3.92;;
25758;SDS011;13604;52.496;13.456;2023-06-14T10:05:45;8.52;;;3.97;;
25758;SDS011;13604;52.496;13.456;2023-06-14T10:08:13;6.55;;;3.35;;
25758;SDS011;13604;52.496;13.456;2023-06-14T10:10:41;8.02;;;3.90;;
25758;SDS011;13604;52.496;13.456;2023-06-14T10:13:07;9.38;;;3.95;;
25758;SDS011;13604;52.496;13.456;2023-06-14T10:15:35;4.70;;;3.55;;
25758;SDS011;13604;52.496;13.456;2023-06-14T10:18:14;12.70;;;3.90;;
25758;SDS011;13604;52.496;13.456;2023-06-14T10:23:40;8.65;;;3.92;;
25758;SDS011;13604;52.496;13.456;2023-06-14T10:26:08;8.70;;;3.33;;
25758;SDS011;13604;52.496;13.456;2023-06-14T10:28:34;8.20;;;3.58;;
25758;SDS011;13604;52.496;13.456;2023-06-14T10:36:30;6.55;;;3.28;;
25758;SDS011;13604;52.496;13.456;2023-06-14T10:39:07;5.50;;;3.70;;
25758;SDS011;13604;52.496;13.456;2023-06-14T10:41:34;7.93;;;3.33;;
25758;SDS011;13604;52.496;13.456;2023-06-14T10:46:55;7.20;;;3.88;;
25758;SDS011;13604;52.496;13.456;2023-06-14T10:49:40;8.18;;;3.63;;
25758;SDS011;13604;52.496;13.456;2023-06-14T10:52:07;6.82;;;3.78;;
25758;SDS011;13604;52.496;13.456;2023-06-14T10:57:43;15.93;;;4.10;;
25758;SDS011;13604;52.496;13.456;2023-06-14T11:00:16;13.23;;;4.22;;
25758;SDS011;13604;52.496;13.456;2023-06-14T11:05:18;6.80;;;3.78;;
25758;SDS011;13604;52.496;13.456;2023-06-14T11:10:39;10.70;;;3.75;;
25758;SDS011;13604;52.496;13.456;2023-06-14T11:13:06;9.48;;;3.60;;
25758;SDS011;13604;52.496;13.456;2023-06-14T11:15:33;5.75;;;3.30;;
25758;SDS011;13604;52.496;13.456;2023-06-14T11:18:00;12.27;;;4.10;;
25758;SDS011;13604;52.496;13.456;2023-06-14T11:20:30;6.65;;;3.63;;
25758;SDS011;13604;52.496;13.456;2023-06-14T11:22:57;10.45;;;3.95;;
25758;SDS011;13604;52.496;13.456;2023-06-14T11:25:22;7.25;;;3.53;;
25758;SDS011;13604;52.496;13.456;2023-06-14T11:27:51;7.55;;;3.70;;
25758;SDS011;13604;52.496;13.456;2023-06-14T11:30:17;6.28;;;3.90;;
25758;SDS011;13604;52.496;13.456;2023-06-14T11:32:45;8.55;;;3.28;;
25758;SDS011;13604;52.496;13.456;2023-06-14T11:35:11;6.38;;;3.00;;
25758;SDS011;13604;52.496;13.456;2023-06-14T11:37:36;7.00;;;3.67;;
25758;SDS011;13604;52.496;13.456;2023-06-14T11:40:03;10.23;;;3.40;;
25758;SDS011;13604;52.496;13.456;2023-06-14T11:42:34;7.28;;;3.10;;
25758;SDS011;13604;52.496;13.456;2023-06-14T11:45:08;6.80;;;2.85;;
25758;SDS011;13604;52.496;13.456;2023-06-14T11:47:36;6.20;;;3.40;;
25758;SDS011;13604;52.496;13.456;2023-06-14T11:50:03;6.65;;;3.60;;
25758;SDS011;13604;52.496;13.456;2023-06-14T11:52:31;8.15;;;3.72;;
25758;SDS011;13604;52.496;13.456;2023-06-14T11:54:56;8.32;;;3.47;;
25758;SDS011;13604;52.496;13.456;2023-06-14T11:57:23;4.40;;;3.00;;
25758;SDS011;13604;52.496;13.456;2023-06-14T11:59:50;9.77;;;3.60;;
25758;SDS011;13604;52.496;13.456;2023-06-14T12:02:19;5.32;;;2.75;;
25758;SDS011;13604;52.496;13.456;2023-06-14T12:04:47;6.80;;;3.22;;
25758;SDS011;13604;52.496;13.456;2023-06-14T12:07:14;6.15;;;3.05;;
25758;SDS011;13604;52.496;13.456;2023-06-14T12:09:42;7.63;;;3.33;;
25758;SDS011;13604;52.496;13.456;2023-06-14T12:12:16;7.13;;;3.15;;
25758;SDS011;13604;52.496;13.456;2023-06-14T12:14:41;10.05;;;3.25;;
25758;SDS011;13604;52.496;13.456;2023-06-14T12:17:07;8.45;;;3.28;;
25758;SDS011;13604;52.496;13.456;2023-06-14T12:19:44;5.65;;;3.28;;
25758;SDS011;13604;52.496;13.456;2023-06-14T12:22:10;7.55;;;3.38;;
25758;SDS011;13604;52.496;13.456;2023-06-14T12:24:36;4.95;;;2.90;;
25758;SDS011;13604;52.496;13.456;2023-06-14T12:27:03;9.25;;;3.08;;
25758;SDS011;13604;52.496;13.456;2023-06-14T12:29:29;4.15;;;3.40;;
25758;SDS011;13604;52.496;13.456;2023-06-14T12:31:55;7.78;;;3.00;;
25758;SDS011;13604;52.496;13.456;2023-06-14T12:34:22;7.28;;;3.47;;
25758;SDS011;13604;52.496;13.456;2023-06-14T12:36:49;8.57;;;3.15;;
25758;SDS011;13604;52.496;13.456;2023-06-14T12:39:15;6.45;;;2.50;;
25758;SDS011;13604;52.496;13.456;2023-06-14T12:41:40;5.57;;;2.70;;
25758;SDS011;13604;52.496;13.456;2023-06-14T12:44:06;5.20;;;2.95;;
25758;SDS011;13604;52.496;13.456;2023-06-14T12:46:32;5.57;;;2.60;;
25758;SDS011;13604;52.496;13.456;2023-06-14T12:48:58;6.88;;;2.90;;
25758;SDS011;13604;52.496;13.456;2023-06-14T12:51:23;7.00;;;2.70;;
25758;SDS011;13604;52.496;13.456;2023-06-14T12:53:50;8.90;;;2.92;;
25758;SDS011;13604;52.496;13.456;2023-06-14T12:56:15;7.43;;;3.03;;
25758;SDS011;13604;52.496;13.456;2023-06-14T12:58:41;6.33;;;3.00;;
25758;SDS011;13604;52.496;13.456;2023-06-14T13:01:07;4.95;;;3.30;;
25758;SDS011;13604;52.496;13.456;2023-06-14T13:03:32;8.13;;;3.17;;
25758;SDS011;13604;52.496;13.456;2023-06-14T13:05:59;7.55;;;3.33;;
25758;SDS011;13604;52.496;13.456;2023-06-14T13:08:25;6.30;;;3.20;;
25758;SDS011;13604;52.496;13.456;2023-06-14T13:10:50;5.32;;;2.80;;
25758;SDS011;13604;52.496;13.456;2023-06-14T13:13:16;8.63;;;2.80;;
25758;SDS011;13604;52.496;13.456;2023-06-14T13:15:41;6.23;;;3.00;;
25758;SDS011;13604;52.496;13.456;2023-06-14T13:18:07;9.73;;;2.80;;
25758;SDS011;13604;52.496;13.456;2023-06-14T13:20:32;5.32;;;2.90;;
25758;SDS011;13604;52.496;13.456;2023-06-14T13:22:58;6.83;;;2.87;;
25758;SDS011;13604;52.496;13.456;2023-06-14T13:25:24;21.08;;;4.80;;
25758;SDS011;13604;52.496;13.456;2023-06-14T13:27:49;19.30;;;4.60;;
25758;SDS011;13604;52.496;13.456;2023-06-14T13:30:14;6.93;;;2.83;;
25758;SDS011;13604;52.496;13.456;2023-06-14T13:32:40;7.25;;;2.83;;
25758;SDS011;13604;52.496;13.456;2023-06-14T13:35:05;10.57;;;4.10;;
25758;SDS011;13604;52.496;13.456;2023-06-14T13:37:31;11.60;;;3.38;;
25758;SDS011;13604;52.496;13.456;2023-06-14T13:39:56;14.67;;;4.43;;
25758;SDS011;13604;52.496;13.456;2023-06-14T13:42:22;10.27;;;3.80;;
25758;SDS011;13604;52.496;13.456;2023-06-14T13:44:47;14.03;;;2.87;;
25758;SDS011;13604;52.496;13.456;2023-06-14T13:47:16;4.38;;;2.70;;
25758;SDS011;13604;52.496;13.456;2023-06-14T13:49:42;7.07;;;3.20;;
25758;SDS011;13604;52.496;13.456;2023-06-14T13:52:07;7.75;;;3.38;;
25758;SDS011;13604;52.496;13.456;2023-06-14T13:54:32;12.50;;;3.90;;
25758;SDS011;13604;52.496;13.456;2023-06-14T13:56:58;9.50;;;3.40;;
25758;SDS011;13604;52.496;13.456;2023-06-14T13:59:23;8.68;;;3.53;;
25758;SDS011;13604;52.496;13.456;2023-06-14T14:01:49;9.27;;;3.23;;
25758;SDS011;13604;52.496;13.456;2023-06-14T14:04:17;9.55;;;3.30;;
25758;SDS011;13604;52.496;13.456;2023-06-14T14:06:44;5.07;;;3.40;;
25758;SDS011;13604;52.496;13.456;2023-06-14T14:09:11;6.60;;;3.10;;
25758;SDS011;13604;52.496;13.456;2023-06-14T14:11:36;8.02;;;3.17;;
25758;SDS011;13604;52.496;13.456;2023-06-14T14:14:09;4.70;;;2.67;;
25758;SDS011;13604;52.496;13.456;2023-06-14T14:16:35;6.60;;;3.55;;
25758;SDS011;13604;52.496;13.456;2023-06-14T14:19:02;9.65;;;3.65;;
25758;SDS011;13604;52.496;13.456;2023-06-14T14:21:27;15.20;;;5.20;;
25758;SDS011;13604;52.496;13.456;2023-06-14T14:23:52;19.77;;;4.53;;
25758;SDS011;13604;52.496;13.456;2023-06-14T14:26:20;15.25;;;4.47;;
25758;SDS011;13604;52.496;13.456;2023-06-14T14:28:45;12.13;;;4.10;;
25758;SDS011;13604;52.496;13.456;2023-06-14T14:31:11;12.10;;;3.65;;
25758;SDS011;13604;52.496;13.456;2023-06-14T14:33:38;41.10;;;5.93;;
25758;SDS011;13604;52.496;13.456;2023-06-14T14:36:03;19.85;;;4.28;;
25758;SDS011;13604;52.496;13.456;2023-06-14T14:38:29;8.20;;;3.30;;
25758;SDS011;13604;52.496;13.456;2023-06-14T14:40:54;9.30;;;3.40;;
25758;SDS011;13604;52.496;13.456;2023-06-14T14:43:21;5.93;;;3.25;;
25758;SDS011;13604;52.496;13.456;2023-06-14T14:45:46;6.13;;;3.20;;
25758;SDS011;13604;52.496;13.456;2023-06-14T14:48:11;7.65;;;3.40;;
25758;SDS011;13604;52.496;13.456;2023-06-14T14:50:38;5.65;;;3.00;;
25758;SDS011;13604;52.496;13.456;2023-06-14T14:53:05;7.40;;;3.22;;
25758;SDS011;13604;52.496;13.456;2023-06-14T14:55:31;8.48;;;3.13;;